Decoded Metar for KBLF (BLUEFIELD in WV, USA) (IATA:BLF) | Meteo·Mobile Aviation Weather
aviador You're here:

KBLF Decoded Metar

BLUEFIELD in WV, USA
Report Time2019-10-21 07:52:00
UTC Time2019-10-21 07:58:29
Flight Rules lifr LIFR
Wind070° at 03 kt
W.Decomp.*RWY 05: 2.7 kt HW 1.4 kt RCW
Visibility9999 m
Phenomena:N/A
Clouds:Overcast 004 Hf
Ceiling400 ft
Temp11°C (ISA +2)
Dew Point11°C (100% RH)
AAT10.2°C
QNH1017 hPa
Density Alt3,117 ft
Elevation2,864 ft
Report Wrong Elevation
Raw Report
KBLF 210752Z AUTO 07003KT 10SM OVC004 11/11 A3004 RMK AO2 SLP160
T01060106=

Extra information for KBLF:More info

Metar Taf Metar & Taf Last 4 Metars F.Rules Stats Wind Profile Meteogram Temp Stats Airport Information Weather charts Add Link Nearby VenuesMetar ALERT Operation Metar Decoded Social comments

AIRNAV info for KBLF